Time;durP1;ratioP1;P1;durP2;ratioP2;P2;SDS_P1;SDS_P2;PMS_P1;PMS_P2;Temp;Humidity;BMP_temperature;BMP_pressure;BME280_temperature;BME280_humidity;BME280_pressure;Samples;Min_cycle;Max_cycle;Signal;HPM_P1;HPM_P2
2023/10/30 00:01:50;;;;;;;13.38;9.90;;;;;;;;;;6262945;22;20072;-72
2023/10/30 00:04:18;;;;;;;12.50;9.77;;;;;;;;;;6290669;22;19999;-72
2023/10/30 00:06:43;;;;;;;14.05;10.07;;;;;;;;;;6261230;22;20240;-72
2023/10/30 00:09:08;;;;;;;14.07;10.60;;;;;;;;;;6260845;22;20499;-72
2023/10/30 00:11:34;;;;;;;14.32;10.45;;;;;;;;;;6260955;22;20007;-72
2023/10/30 00:14:00;;;;;;;13.70;9.77;;;;;;;;;;6263677;22;20004;-73
2023/10/30 00:16:26;;;;;;;12.48;9.48;;;;;;;;;;6257517;22;20003;-72
2023/10/30 00:18:52;;;;;;;12.50;9.20;;;;;;;;;;6262445;22;20007;-72
2023/10/30 00:21:22;;;;;;;13.05;9.35;;;;;;;;;;6286484;22;19995;-71
2023/10/30 00:23:48;;;;;;;12.30;9.68;;;;;;;;;;6286349;22;19995;-72
2023/10/30 00:26:15;;;;;;;12.48;9.65;;;;;;;;;;6286604;22;20459;-74
2023/10/30 00:28:43;;;;;;;13.85;10.18;;;;;;;;;;6286882;22;20075;-74
2023/10/30 00:31:10;;;;;;;13.57;10.73;;;;;;;;;;6286872;22;20436;-74
2023/10/30 00:33:40;;;;;;;12.75;9.95;;;;;;;;;;6258663;22;19999;-73
2023/10/30 00:36:08;;;;;;;11.30;9.25;;;;;;;;;;6261743;22;20085;-73
2023/10/30 00:38:33;;;;;;;13.93;10.98;;;;;;;;;;6262107;22;20081;-73
2023/10/30 00:40:59;;;;;;;14.33;9.97;;;;;;;;;;6285390;22;20002;-73
2023/10/30 00:43:25;;;;;;;12.35;9.52;;;;;;;;;;6290591;22;20210;-72
2023/10/30 00:45:51;;;;;;;13.23;9.73;;;;;;;;;;6286726;22;20098;-73
2023/10/30 00:48:19;;;;;;;11.80;9.80;;;;;;;;;;6262644;22;20106;-72
2023/10/30 00:50:44;;;;;;;11.80;9.38;;;;;;;;;;6256444;22;20011;-73
2023/10/30 00:53:09;;;;;;;11.23;8.93;;;;;;;;;;6259314;22;20022;-72
2023/10/30 00:55:43;;;;;;;11.90;9.30;;;;;;;;;;6284920;22;20002;-72
2023/10/30 00:58:08;;;;;;;12.50;9.40;;;;;;;;;;6286113;22;20214;-72
2023/10/30 01:00:34;;;;;;;11.52;9.25;;;;;;;;;;6289119;22;20003;-73
2023/10/30 01:02:59;;;;;;;12.45;9.25;;;;;;;;;;6258180;22;20000;-73
2023/10/30 01:05:24;;;;;;;12.53;9.20;;;;;;;;;;6262425;22;20006;-72
2023/10/30 01:07:50;;;;;;;13.38;8.82;;;;;;;;;;6286299;22;20214;-71
2023/10/30 01:10:15;;;;;;;12.13;8.93;;;;;;;;;;6289961;22;20081;-71
2023/10/30 01:12:41;;;;;;;11.50;8.47;;;;;;;;;;6259869;22;20007;-71
2023/10/30 01:15:06;;;;;;;10.37;8.20;;;;;;;;;;6289155;22;20328;-70
2023/10/30 01:17:31;;;;;;;13.07;9.10;;;;;;;;;;6287300;22;20663;-70
2023/10/30 01:20:02;;;;;;;11.50;8.70;;;;;;;;;;6289112;22;20060;-70
2023/10/30 01:22:28;;;;;;;14.55;9.90;;;;;;;;;;6288589;22;20074;-70
2023/10/30 01:24:58;;;;;;;11.77;9.23;;;;;;;;;;6285928;22;20262;-68
2023/10/30 01:27:23;;;;;;;13.43;9.52;;;;;;;;;;6261392;22;19999;-68
2023/10/30 01:29:48;;;;;;;13.68;9.85;;;;;;;;;;6286576;22;20010;-68
2023/10/30 01:32:13;;;;;;;12.50;9.40;;;;;;;;;;6261304;22;20014;-68
2023/10/30 01:34:39;;;;;;;13.17;9.67;;;;;;;;;;6258936;22;20221;-68
2023/10/30 01:37:04;;;;;;;12.20;9.60;;;;;;;;;;6260835;22;20249;-68
2023/10/30 01:39:32;;;;;;;13.25;9.48;;;;;;;;;;6287435;22;20527;-68
2023/10/30 01:41:58;;;;;;;14.55;9.35;;;;;;;;;;6260301;22;20003;-68
2023/10/30 01:44:23;;;;;;;12.30;9.43;;;;;;;;;;6289722;22;20010;-69
2023/10/30 01:46:48;;;;;;;11.53;9.10;;;;;;;;;;6259076;22;20258;-69
2023/10/30 01:49:13;;;;;;;14.17;9.70;;;;;;;;;;6289275;22;20265;-70
2023/10/30 01:51:39;;;;;;;14.05;10.85;;;;;;;;;;6287500;22;20715;-69
2023/10/30 01:54:04;;;;;;;15.73;10.75;;;;;;;;;;6288593;22;20078;-69
2023/10/30 01:56:30;;;;;;;14.23;10.40;;;;;;;;;;6258349;22;20007;-70
2023/10/30 01:58:55;;;;;;;12.93;10.35;;;;;;;;;;6261285;22;20601;-68
2023/10/30 02:01:24;;;;;;;14.77;10.10;;;;;;;;;;6261260;22;20037;-70
2023/10/30 02:03:51;;;;;;;14.25;9.00;;;;;;;;;;6259762;22;20225;-69
2023/10/30 02:06:16;;;;;;;12.77;9.18;;;;;;;;;;6260991;22;20004;-70
2023/10/30 02:08:41;;;;;;;12.60;9.33;;;;;;;;;;6260582;22;20082;-70
2023/10/30 02:11:06;;;;;;;15.53;9.13;;;;;;;;;;6289041;22;20214;-70
2023/10/30 02:13:32;;;;;;;15.40;9.73;;;;;;;;;;6286861;22;20609;-71
2023/10/30 02:15:57;;;;;;;13.98;10.13;;;;;;;;;;6259992;22;20333;-70
2023/10/30 02:18:22;;;;;;;14.25;9.80;;;;;;;;;;6287796;22;19995;-71
2023/10/30 02:20:47;;;;;;;15.38;8.75;;;;;;;;;;6289405;22;20061;-69
2023/10/30 02:23:13;;;;;;;12.30;9.50;;;;;;;;;;6259262;22;20000;-71
2023/10/30 02:25:38;;;;;;;12.87;9.07;;;;;;;;;;6259451;22;19999;-69
2023/10/30 02:28:07;;;;;;;12.43;9.00;;;;;;;;;;6287742;22;20209;-71
2023/10/30 02:30:32;;;;;;;13.13;9.40;;;;;;;;;;6289459;22;20233;-70
2023/10/30 02:32:57;;;;;;;13.52;9.38;;;;;;;;;;6286953;22;20010;-69
2023/10/30 02:35:25;;;;;;;12.23;8.52;;;;;;;;;;6262794;22;20003;-69
2023/10/30 02:37:50;;;;;;;11.13;8.93;;;;;;;;;;6285030;22;20023;-70
2023/10/30 02:40:18;;;;;;;11.30;7.63;;;;;;;;;;6286866;22;20065;-70
2023/10/30 02:42:43;;;;;;;11.63;7.95;;;;;;;;;;6259527;22;20005;-70
2023/10/30 02:45:09;;;;;;;12.25;7.90;;;;;;;;;;6286603;22;20066;-70
2023/10/30 02:47:34;;;;;;;13.57;8.05;;;;;;;;;;6289153;22;20025;-71
2023/10/30 02:50:01;;;;;;;10.43;7.93;;;;;;;;;;6286253;22;20006;-70
2023/10/30 02:52:29;;;;;;;11.32;7.68;;;;;;;;;;6290256;22;20003;-70
2023/10/30 02:54:54;;;;;;;9.55;7.32;;;;;;;;;;6260511;22;20010;-71
2023/10/30 02:57:19;;;;;;;9.97;7.43;;;;;;;;;;6289415;22;19995;-71
2023/10/30 02:59:44;;;;;;;10.48;7.22;;;;;;;;;;6287666;22;20726;-70
2023/10/30 03:02:10;;;;;;;9.27;6.67;;;;;;;;;;6287103;22;19999;-71
2023/10/30 03:04:35;;;;;;;10.00;6.73;;;;;;;;;;6260175;22;20611;-70
2023/10/30 03:07:03;;;;;;;8.80;6.53;;;;;;;;;;6258636;22;20213;-70
2023/10/30 03:09:33;;;;;;;8.35;6.40;;;;;;;;;;6288254;22;20248;-69
2023/10/30 03:11:58;;;;;;;;;;;;;;;;;;6259837;22;20034;-69
2023/10/30 03:14:26;;;;;;;10.60;7.10;;;;;;;;;;6260624;22;20236;-69
2023/10/30 03:16:54;;;;;;;9.73;6.85;;;;;;;;;;6260257;22;20096;-70
2023/10/30 03:19:19;;;;;;;9.48;6.15;;;;;;;;;;6288433;22;20026;-71
2023/10/30 03:21:44;;;;;;;10.07;6.40;;;;;;;;;;6263980;22;20026;-69
2023/10/30 03:24:09;;;;;;;10.02;6.70;;;;;;;;;;6260424;22;20230;-70
2023/10/30 03:26:37;;;;;;;10.73;7.00;;;;;;;;;;6261904;22;20062;-70
2023/10/30 03:29:02;;;;;;;9.75;6.90;;;;;;;;;;6258271;22;20540;-70
2023/10/30 03:31:30;;;;;;;10.15;7.85;;;;;;;;;;6259786;22;20010;-70
2023/10/30 03:33:55;;;;;;;11.05;7.53;;;;;;;;;;6282055;22;20491;-70
2023/10/30 03:36:22;;;;;;;10.80;7.57;;;;;;;;;;6288530;22;20009;-70
2023/10/30 03:38:48;;;;;;;11.45;8.25;;;;;;;;;;6259884;22;20010;-68
2023/10/30 03:41:13;;;;;;;11.63;7.60;;;;;;;;;;6262360;22;20000;-69
2023/10/30 03:43:38;;;;;;;9.20;7.30;;;;;;;;;;6289331;22;20002;-68
2023/10/30 03:46:06;;;;;;;11.20;7.17;;;;;;;;;;6289169;22;20245;-68
2023/10/30 03:48:34;;;;;;;10.82;8.20;;;;;;;;;;6260434;22;20370;-69
2023/10/30 03:50:59;;;;;;;12.50;8.30;;;;;;;;;;6260229;22;20018;-69
2023/10/30 03:53:25;;;;;;;12.10;8.48;;;;;;;;;;6291756;22;20371;-69
2023/10/30 03:55:50;;;;;;;11.85;7.68;;;;;;;;;;6260311;22;20097;-68
2023/10/30 03:58:15;;;;;;;10.05;7.50;;;;;;;;;;6260111;22;19999;-69
2023/10/30 04:00:41;;;;;;;11.93;7.63;;;;;;;;;;6289432;22;20006;-69
2023/10/30 04:03:09;;;;;;;10.32;7.00;;;;;;;;;;6260796;22;20244;-69
2023/10/30 04:05:34;;;;;;;10.77;7.68;;;;;;;;;;6289483;22;20001;-70
2023/10/30 04:08:00;;;;;;;10.38;7.40;;;;;;;;;;6261334;22;20003;-69
2023/10/30 04:10:25;;;;;;;8.95;7.05;;;;;;;;;;6289774;22;20497;-69
2023/10/30 04:12:50;;;;;;;10.02;6.95;;;;;;;;;;6287739;22;20013;-69
2023/10/30 04:15:18;;;;;;;9.90;7.17;;;;;;;;;;6288272;22;20007;-69
2023/10/30 04:17:43;;;;;;;10.25;7.40;;;;;;;;;;6283266;22;20220;-68
2023/10/30 04:20:08;;;;;;;11.13;7.75;;;;;;;;;;6288067;22;20698;-69
2023/10/30 04:22:36;;;;;;;12.82;8.85;;;;;;;;;;6286681;22;19995;-69
2023/10/30 04:25:06;;;;;;;10.95;8.98;;;;;;;;;;6262631;22;20538;-69
2023/10/30 04:27:31;;;;;;;11.65;8.88;;;;;;;;;;6261698;22;20037;-69
2023/10/30 04:29:56;;;;;;;10.65;8.38;;;;;;;;;;6286424;22;20038;-69
2023/10/30 04:32:21;;;;;;;11.75;8.95;;;;;;;;;;6290459;22;20306;-69
2023/10/30 04:34:49;;;;;;;11.87;9.13;;;;;;;;;;6257482;22;20003;-69
2023/10/30 04:37:19;;;;;;;12.07;10.05;;;;;;;;;;6289433;22;20210;-69
2023/10/30 04:39:45;;;;;;;10.95;9.43;;;;;;;;;;6286408;22;20003;-69
2023/10/30 04:42:12;;;;;;;12.25;9.38;;;;;;;;;;6264171;22;20083;-69
2023/10/30 04:44:38;;;;;;;11.20;9.27;;;;;;;;;;6287392;22;20103;-69
2023/10/30 04:47:03;;;;;;;13.52;9.80;;;;;;;;;;6289761;22;20094;-69
2023/10/30 04:49:34;;;;;;;11.98;9.80;;;;;;;;;;6262011;22;20705;-69
2023/10/30 04:52:00;;;;;;;12.52;9.85;;;;;;;;;;6258766;22;20094;-69
2023/10/30 04:54:27;;;;;;;11.98;9.55;;;;;;;;;;6262919;22;20422;-70
2023/10/30 04:56:53;;;;;;;13.00;9.52;;;;;;;;;;6286570;22;20034;-68
2023/10/30 04:59:18;;;;;;;11.03;8.57;;;;;;;;;;6289841;22;20134;-69
2023/10/30 05:01:43;;;;;;;11.07;8.43;;;;;;;;;;6285516;22;20234;-70
2023/10/30 05:04:08;;;;;;;14.43;10.05;;;;;;;;;;6286439;22;21039;-69
2023/10/30 05:06:34;;;;;;;13.63;10.02;;;;;;;;;;6289733;22;19999;-68
2023/10/30 05:09:01;;;;;;;13.15;9.88;;;;;;;;;;6287954;22;20018;-70
2023/10/30 05:11:26;;;;;;;12.32;9.50;;;;;;;;;;6262345;22;20018;-69
2023/10/30 05:13:52;;;;;;;9.88;8.43;;;;;;;;;;6283979;22;19995;-72
2023/10/30 05:16:17;;;;;;;14.27;9.87;;;;;;;;;;6260707;22;20526;-70
2023/10/30 05:18:47;;;;;;;12.23;9.30;;;;;;;;;;6258730;22;20781;-72
2023/10/30 05:21:12;;;;;;;12.82;9.30;;;;;;;;;;6258356;22;20221;-70
2023/10/30 05:23:38;;;;;;;12.77;9.00;;;;;;;;;;6285107;22;20014;-72
2023/10/30 05:26:03;;;;;;;13.50;7.30;;;;;;;;;;6258370;22;20338;-72
2023/10/30 05:28:28;;;;;;;10.48;6.88;;;;;;;;;;6259936;22;20228;-69
2023/10/30 05:30:54;;;;;;;8.18;5.63;;;;;;;;;;6258730;22;20038;-72
2023/10/30 05:33:19;;;;;;;8.60;6.05;;;;;;;;;;6262222;22;20465;-69
2023/10/30 05:35:52;;;;;;;9.97;7.10;;;;;;;;;;6258867;22;20703;-69
2023/10/30 05:38:17;;;;;;;11.90;7.90;;;;;;;;;;6260790;22;20735;-70
2023/10/30 05:40:43;;;;;;;11.20;7.88;;;;;;;;;;6287282;22;20068;-70
2023/10/30 05:43:08;;;;;;;10.38;7.05;;;;;;;;;;6260396;22;20000;-70
2023/10/30 05:45:33;;;;;;;9.60;6.63;;;;;;;;;;6287993;22;20015;-69
2023/10/30 05:47:59;;;;;;;8.87;6.33;;;;;;;;;;6259002;22;20222;-71
2023/10/30 05:50:24;;;;;;;9.17;6.00;;;;;;;;;;6288380;22;20310;-69
2023/10/30 05:52:51;;;;;;;8.32;5.97;;;;;;;;;;6285445;22;20221;-71
2023/10/30 05:55:17;;;;;;;9.95;6.15;;;;;;;;;;6289356;22;20510;-70
2023/10/30 05:57:47;;;;;;;10.82;6.70;;;;;;;;;;6287300;22;20003;-71
2023/10/30 06:00:13;;;;;;;8.60;6.10;;;;;;;;;;6259555;22;20556;-70
2023/10/30 06:02:38;;;;;;;9.07;5.93;;;;;;;;;;6259209;22;20078;-69
2023/10/30 06:05:06;;;;;;;8.97;5.53;;;;;;;;;;6288696;22;20074;-71
2023/10/30 06:07:34;;;;;;;8.45;6.22;;;;;;;;;;6260764;22;20233;-69
2023/10/30 06:10:00;;;;;;;8.98;6.63;;;;;;;;;;6257874;22;20428;-71
2023/10/30 06:12:27;;;;;;;9.40;6.45;;;;;;;;;;6289100;22;20053;-69
2023/10/30 06:14:55;;;;;;;8.45;6.53;;;;;;;;;;6287234;22;20006;-70
2023/10/30 06:17:20;;;;;;;9.90;6.43;;;;;;;;;;6262030;22;19999;-68
2023/10/30 06:19:48;;;;;;;10.68;6.28;;;;;;;;;;6262441;22;20056;-69
2023/10/30 06:22:13;;;;;;;10.70;6.85;;;;;;;;;;6255816;22;19999;-69
2023/10/30 06:24:38;;;;;;;10.60;5.93;;;;;;;;;;6259361;22;20000;-68
2023/10/30 06:27:06;;;;;;;10.85;6.63;;;;;;;;;;6282410;22;21132;-69
2023/10/30 06:29:32;;;;;;;9.68;6.55;;;;;;;;;;6259953;22;20031;-69
2023/10/30 06:31:57;;;;;;;8.93;6.50;;;;;;;;;;6259494;22;20035;-69
2023/10/30 06:34:25;;;;;;;8.02;6.03;;;;;;;;;;6261580;22;20007;-70
2023/10/30 06:36:50;;;;;;;9.68;6.57;;;;;;;;;;6260549;22;20030;-69
2023/10/30 06:39:20;;;;;;;9.25;6.30;;;;;;;;;;6286679;22;20575;-69
2023/10/30 06:41:48;;;;;;;11.10;5.93;;;;;;;;;;6281214;22;19999;-69
2023/10/30 06:44:13;;;;;;;9.50;6.28;;;;;;;;;;6255888;22;20003;-68
2023/10/30 06:46:39;;;;;;;9.48;6.53;;;;;;;;;;6284916;22;20015;-68
2023/10/30 06:49:04;;;;;;;8.03;5.67;;;;;;;;;;6253628;22;20007;-71
2023/10/30 06:51:29;;;;;;;9.60;6.13;;;;;;;;;;6252083;22;20312;-70
2023/10/30 06:53:54;;;;;;;8.25;6.25;;;;;;;;;;6283621;22;20217;-72
2023/10/30 06:56:20;;;;;;;8.73;6.17;;;;;;;;;;6278889;22;20197;-71
2023/10/30 06:58:45;;;;;;;9.07;5.77;;;;;;;;;;6285753;22;20213;-69
2023/10/30 07:01:13;;;;;;;10.13;6.37;;;;;;;;;;6282027;22;20221;-68
2023/10/30 07:03:40;;;;;;;9.40;6.10;;;;;;;;;;6287160;22;20205;-71
2023/10/30 07:06:10;;;;;;;7.75;4.10;;;;;;;;;;6255795;22;20443;-70
2023/10/30 07:08:36;;;;;;;6.32;3.65;;;;;;;;;;6286818;22;19995;-71
2023/10/30 07:11:03;;;;;;;5.97;3.72;;;;;;;;;;6258638;22;20082;-75
2023/10/30 07:13:31;;;;;;;5.47;3.33;;;;;;;;;;6283795;22;19995;-68
2023/10/30 07:15:56;;;;;;;7.20;4.90;;;;;;;;;;6259049;22;19999;-72
2023/10/30 07:18:24;;;;;;;7.93;5.40;;;;;;;;;;6257910;22;20029;-72
2023/10/30 07:20:54;;;;;;;10.18;7.25;;;;;;;;;;6288499;22;20086;-71
2023/10/30 07:23:19;;;;;;;9.70;5.80;;;;;;;;;;6284809;22;20626;-72
2023/10/30 07:25:44;;;;;;;8.07;5.35;;;;;;;;;;6288166;22;20003;-72
2023/10/30 07:28:11;;;;;;;8.47;5.80;;;;;;;;;;6259591;22;20064;-71
2023/10/30 07:30:39;;;;;;;8.35;6.20;;;;;;;;;;6285399;22;20245;-70
2023/10/30 07:33:04;;;;;;;9.55;6.07;;;;;;;;;;6287901;22;20410;-69
2023/10/30 07:35:32;;;;;;;11.00;6.63;;;;;;;;;;6286016;22;19999;-72
2023/10/30 07:37:57;;;;;;;9.23;5.95;;;;;;;;;;6287290;22;20233;-71
2023/10/30 07:40:25;;;;;;;9.97;5.50;;;;;;;;;;6291324;22;20038;-73
2023/10/30 07:42:54;;;;;;;7.90;5.53;;;;;;;;;;6261172;22;20332;-70
2023/10/30 07:45:19;;;;;;;9.07;6.00;;;;;;;;;;6289929;22;20015;-73
2023/10/30 07:47:45;;;;;;;10.02;6.38;;;;;;;;;;6288613;22;20219;-72
2023/10/30 07:50:12;;;;;;;8.03;5.73;;;;;;;;;;6261642;22;20448;-70
2023/10/30 07:52:38;;;;;;;9.63;6.47;;;;;;;;;;6289531;22;20771;-71
2023/10/30 07:55:06;;;;;;;8.75;6.50;;;;;;;;;;6286664;22;20034;-69
2023/10/30 07:57:32;;;;;;;9.95;6.35;;;;;;;;;;6262860;22;20070;-71
2023/10/30 07:59:57;;;;;;;9.38;5.65;;;;;;;;;;6287840;22;20033;-70
2023/10/30 08:02:22;;;;;;;8.37;6.03;;;;;;;;;;6291123;22;20743;-71
2023/10/30 08:04:47;;;;;;;9.33;6.37;;;;;;;;;;6287106;22;20245;-72
2023/10/30 08:07:13;;;;;;;9.30;6.95;;;;;;;;;;6287694;22;20300;-71
2023/10/30 08:09:38;;;;;;;11.03;6.60;;;;;;;;;;6260728;22;20015;-71
2023/10/30 08:12:03;;;;;;;9.20;6.43;;;;;;;;;;6288659;22;20395;-69
2023/10/30 08:14:29;;;;;;;8.25;5.75;;;;;;;;;;6262380;22;20218;-69
2023/10/30 08:16:54;;;;;;;8.90;5.82;;;;;;;;;;6286551;22;20108;-71
2023/10/30 08:19:21;;;;;;;9.43;6.33;;;;;;;;;;6289721;22;20010;-70
2023/10/30 08:21:47;;;;;;;9.18;6.07;;;;;;;;;;6283422;22;20308;-73
2023/10/30 08:24:12;;;;;;;9.15;6.38;;;;;;;;;;6287700;22;20074;-72
2023/10/30 08:26:37;;;;;;;10.40;6.18;;;;;;;;;;6286229;22;20211;-74
2023/10/30 08:29:03;;;;;;;8.50;6.03;;;;;;;;;;6261035;22;20593;-74
2023/10/30 08:31:28;;;;;;;9.02;6.22;;;;;;;;;;6256783;22;20026;-72
2023/10/30 08:33:54;;;;;;;10.80;6.35;;;;;;;;;;6261647;22;20792;-69
2023/10/30 08:36:22;;;;;;;9.40;6.55;;;;;;;;;;6259327;22;20088;-71
2023/10/30 08:38:47;;;;;;;9.93;6.95;;;;;;;;;;6286076;22;20003;-71
2023/10/30 08:41:17;;;;;;;8.38;6.20;;;;;;;;;;6287407;22;20400;-71
2023/10/30 08:43:43;;;;;;;9.45;6.28;;;;;;;;;;6285766;22;20082;-71
2023/10/30 08:46:10;;;;;;;10.93;6.75;;;;;;;;;;6261029;22;20105;-71
2023/10/30 08:48:38;;;;;;;10.57;7.00;;;;;;;;;;6258868;22;20111;-69
2023/10/30 08:51:03;;;;;;;9.27;6.65;;;;;;;;;;6288242;22;20080;-72
2023/10/30 08:53:29;;;;;;;11.25;7.00;;;;;;;;;;6287978;22;20691;-70
2023/10/30 08:55:57;;;;;;;10.23;7.20;;;;;;;;;;6260443;22;20003;-70
2023/10/30 08:58:22;;;;;;;8.38;6.45;;;;;;;;;;6255043;22;20507;-70
2023/10/30 09:00:47;;;;;;;9.93;6.43;;;;;;;;;;6254109;22;20011;-70
2023/10/30 09:03:12;;;;;;;10.07;6.75;;;;;;;;;;6253791;22;21055;-70
2023/10/30 09:05:38;;;;;;;10.00;6.17;;;;;;;;;;6251659;22;20021;-70
2023/10/30 09:08:05;;;;;;;9.45;6.30;;;;;;;;;;6256130;22;20290;-70
2023/10/30 09:10:32;;;;;;;8.90;6.20;;;;;;;;;;6277013;22;20153;-70
2023/10/30 09:12:58;;;;;;;11.15;6.88;;;;;;;;;;6283028;22;20003;-69
2023/10/30 09:15:25;;;;;;;10.18;6.70;;;;;;;;;;6253648;22;19995;-69
2023/10/30 09:17:52;;;;;;;10.95;7.13;;;;;;;;;;6252797;22;19999;-71
2023/10/30 09:20:17;;;;;;;9.40;6.72;;;;;;;;;;6278094;22;19999;-71
2023/10/30 09:22:42;;;;;;;10.63;7.43;;;;;;;;;;6253781;22;20006;-71
2023/10/30 09:25:10;;;;;;;10.52;8.48;;;;;;;;;;6280507;22;20006;-71
2023/10/30 09:27:35;;;;;;;11.68;8.02;;;;;;;;;;6252755;22;20403;-70
2023/10/30 09:30:01;;;;;;;10.60;8.77;;;;;;;;;;6279151;22;20006;-70
2023/10/30 09:32:26;;;;;;;11.15;7.45;;;;;;;;;;6280489;22;20666;-70
2023/10/30 09:34:55;;;;;;;10.70;6.72;;;;;;;;;;6254933;22;19999;-68
2023/10/30 09:37:23;;;;;;;;;;;;;;;;;;6247100;22;19999;-67
2023/10/30 09:39:48;;;;;;;9.88;6.75;;;;;;;;;;6253556;22;20410;-69
2023/10/30 09:42:14;;;;;;;11.57;8.30;;;;;;;;;;6254369;22;19999;-70
2023/10/30 09:44:40;;;;;;;10.82;7.72;;;;;;;;;;6282301;22;20678;-71
2023/10/30 09:47:06;;;;;;;12.52;7.28;;;;;;;;;;6282589;22;20110;-71
2023/10/30 09:49:32;;;;;;;9.32;6.65;;;;;;;;;;6252011;22;20370;-72
2023/10/30 09:52:01;;;;;;;13.40;5.90;;;;;;;;;;6281009;22;20015;-71
2023/10/30 09:54:27;;;;;;;5.63;3.60;;;;;;;;;;6252334;22;20501;-73
2023/10/30 09:56:52;;;;;;;7.25;3.70;;;;;;;;;;6282612;22;20296;-72
2023/10/30 09:59:20;;;;;;;5.38;3.17;;;;;;;;;;6282782;22;20007;-74
2023/10/30 10:01:47;;;;;;;6.10;3.75;;;;;;;;;;6253577;22;20002;-72
2023/10/30 10:04:17;;;;;;;7.18;4.18;;;;;;;;;;6281165;22;19995;-70
2023/10/30 10:06:43;;;;;;;7.38;2.90;;;;;;;;;;6251904;22;20412;-70
2023/10/30 10:09:08;;;;;;;5.65;2.70;;;;;;;;;;6254726;22;19999;-72
2023/10/30 10:11:35;;;;;;;6.88;2.17;;;;;;;;;;6280412;22;19996;-67
2023/10/30 10:14:01;;;;;;;4.72;1.35;;;;;;;;;;6253718;22;20003;-65
2023/10/30 10:16:29;;;;;;;3.13;0.90;;;;;;;;;;6253826;22;20273;-66
2023/10/30 10:18:54;;;;;;;3.05;0.80;;;;;;;;;;6252267;22;20098;-67
2023/10/30 10:21:22;;;;;;;2.80;0.82;;;;;;;;;;6255433;22;20742;-68
2023/10/30 10:23:49;;;;;;;4.40;1.90;;;;;;;;;;6252366;22;20000;-69
2023/10/30 10:26:15;;;;;;;6.32;2.67;;;;;;;;;;6253576;22;20492;-70
2023/10/30 10:28:45;;;;;;;5.32;3.03;;;;;;;;;;6280581;22;20070;-72
2023/10/30 10:31:11;;;;;;;5.45;3.00;;;;;;;;;;6282090;22;19999;-71
2023/10/30 10:33:39;;;;;;;4.70;2.58;;;;;;;;;;6253264;22;20006;-72
2023/10/30 10:36:05;;;;;;;6.65;2.30;;;;;;;;;;6254210;22;20003;-73
2023/10/30 10:38:30;;;;;;;4.10;2.00;;;;;;;;;;6254772;22;19995;-73
2023/10/30 10:40:56;;;;;;;4.38;2.30;;;;;;;;;;6248113;22;20057;-72
2023/10/30 10:43:24;;;;;;;6.63;2.88;;;;;;;;;;6279667;22;19999;-71
2023/10/30 10:45:52;;;;;;;6.70;3.10;;;;;;;;;;6273906;22;20103;-71
2023/10/30 10:48:18;;;;;;;5.47;2.58;;;;;;;;;;6280714;22;20370;-72
2023/10/30 10:50:44;;;;;;;5.25;2.92;;;;;;;;;;6280125;22;20371;-73
2023/10/30 10:53:10;;;;;;;5.75;3.17;;;;;;;;;;6280780;22;20003;-71
2023/10/30 10:55:38;;;;;;;5.30;3.33;;;;;;;;;;6279629;22;20021;-70
2023/10/30 10:58:08;;;;;;;5.60;3.60;;;;;;;;;;6253852;22;20501;-73
2023/10/30 11:00:36;;;;;;;7.00;3.20;;;;;;;;;;6253524;22;20003;-71
2023/10/30 11:03:05;;;;;;;3.90;2.00;;;;;;;;;;6254552;22;20737;-70
2023/10/30 11:05:34;;;;;;;5.03;2.25;;;;;;;;;;6252418;22;20004;-70
2023/10/30 11:08:22;;;;;;;4.95;2.45;;;;;;;;;;6279857;22;20068;-71
2023/10/30 11:10:56;;;;;;;4.25;2.40;;;;;;;;;;6176908;22;20026;-71
2023/10/30 11:13:27;;;;;;;5.00;2.53;;;;;;;;;;6255238;22;20019;-71
2023/10/30 11:15:56;;;;;;;5.93;2.90;;;;;;;;;;6280456;22;20080;-70
2023/10/30 11:18:24;;;;;;;4.82;2.58;;;;;;;;;;6280481;22;19995;-71
2023/10/30 11:21:11;;;;;;;5.45;2.45;;;;;;;;;;6281831;22;20646;-70
2023/10/30 11:23:55;;;;;;;7.03;3.35;;;;;;;;;;6253484;22;20003;-72
2023/10/30 11:26:29;;;;;;;7.20;4.53;;;;;;;;;;6282164;22;19999;-73
2023/10/30 11:28:54;;;;;;;8.10;4.38;;;;;;;;;;6253161;22;20049;-73
2023/10/30 11:31:20;;;;;;;4.82;2.70;;;;;;;;;;6251341;22;20007;-73
2023/10/30 11:33:45;;;;;;;5.05;2.22;;;;;;;;;;6282575;22;20143;-71
2023/10/30 11:36:17;;;;;;;4.80;2.45;;;;;;;;;;6251978;22;20030;-74
2023/10/30 11:38:48;;;;;;;6.95;2.67;;;;;;;;;;6256131;22;20052;-74
2023/10/30 11:41:19;;;;;;;4.88;2.53;;;;;;;;;;6278484;22;19999;-70
2023/10/30 11:43:44;;;;;;;4.85;2.63;;;;;;;;;;6283742;22;20745;-73
2023/10/30 11:46:12;;;;;;;4.45;1.80;;;;;;;;;;6281718;22;20011;-73
2023/10/30 11:48:37;;;;;;;4.40;1.70;;;;;;;;;;6280526;22;19999;-72
2023/10/30 11:51:05;;;;;;;4.20;2.00;;;;;;;;;;6250554;22;20336;-75
2023/10/30 11:53:30;;;;;;;4.30;2.25;;;;;;;;;;6252186;22;20550;-72
2023/10/30 11:55:56;;;;;;;4.00;2.03;;;;;;;;;;6250857;22;20003;-74
2023/10/30 11:58:21;;;;;;;4.40;2.20;;;;;;;;;;6252071;22;21096;-76
2023/10/30 12:00:50;;;;;;;7.70;2.08;;;;;;;;;;6280496;22;20006;-70
2023/10/30 12:03:16;;;;;;;4.63;2.22;;;;;;;;;;6252011;22;19999;-72
2023/10/30 12:05:41;;;;;;;4.57;2.63;;;;;;;;;;6253298;22;20006;-72
2023/10/30 12:08:07;;;;;;;6.25;3.38;;;;;;;;;;6280221;22;19995;-70
2023/10/30 12:10:32;;;;;;;5.50;3.35;;;;;;;;;;6279519;22;20530;-71
2023/10/30 12:13:02;;;;;;;6.40;3.50;;;;;;;;;;6272788;22;20007;-73
2023/10/30 12:15:30;;;;;;;5.88;3.80;;;;;;;;;;6251241;22;20667;-72
2023/10/30 12:17:56;;;;;;;6.40;3.78;;;;;;;;;;6252974;22;20033;-71
2023/10/30 12:20:21;;;;;;;5.80;3.92;;;;;;;;;;6254204;22;20039;-73
2023/10/30 12:22:46;;;;;;;5.68;3.70;;;;;;;;;;6252918;22;20000;-73
2023/10/30 12:25:19;;;;;;;5.10;3.23;;;;;;;;;;6247260;22;20041;-73
2023/10/30 12:27:48;;;;;;;5.85;3.10;;;;;;;;;;6282822;22;20206;-71
2023/10/30 12:30:14;;;;;;;5.75;3.05;;;;;;;;;;6279956;22;20003;-71
2023/10/30 12:32:42;;;;;;;6.38;3.28;;;;;;;;;;6281969;22;20576;-73
2023/10/30 12:35:13;;;;;;;6.07;3.50;;;;;;;;;;6251421;22;19999;-70
2023/10/30 12:37:41;;;;;;;7.13;3.35;;;;;;;;;;6253915;22;19999;-70
2023/10/30 12:40:08;;;;;;;7.13;3.92;;;;;;;;;;6249341;22;20048;-71
2023/10/30 12:42:34;;;;;;;6.22;3.25;;;;;;;;;;6252228;22;20402;-70
2023/10/30 12:45:02;;;;;;;5.70;3.70;;;;;;;;;;6251320;22;20870;-72
2023/10/30 12:47:27;;;;;;;7.55;3.45;;;;;;;;;;6252176;22;20289;-70
2023/10/30 12:49:53;;;;;;;5.57;3.20;;;;;;;;;;6279807;22;20778;-71
2023/10/30 12:52:20;;;;;;;5.40;3.40;;;;;;;;;;6278577;22;20007;-71
2023/10/30 12:54:47;;;;;;;5.30;3.10;;;;;;;;;;6282634;22;20003;-72
2023/10/30 12:57:15;;;;;;;7.65;3.70;;;;;;;;;;6252632;22;20052;-70
2023/10/30 12:59:40;;;;;;;5.82;3.30;;;;;;;;;;6252871;22;20505;-71
2023/10/30 13:02:05;;;;;;;5.70;3.60;;;;;;;;;;6281484;22;20003;-71
2023/10/30 13:04:32;;;;;;;6.85;3.83;;;;;;;;;;6252338;22;20084;-70
2023/10/30 13:06:59;;;;;;;6.18;3.65;;;;;;;;;;6249996;22;20023;-72
2023/10/30 13:09:27;;;;;;;6.38;3.60;;;;;;;;;;6246974;22;20007;-74
2023/10/30 13:11:52;;;;;;;7.05;3.92;;;;;;;;;;6251934;22;20365;-71
2023/10/30 13:14:18;;;;;;;6.30;3.97;;;;;;;;;;6252938;22;20082;-73
2023/10/30 13:16:43;;;;;;;6.05;4.03;;;;;;;;;;6252941;22;20089;-72
2023/10/30 13:19:10;;;;;;;6.60;4.10;;;;;;;;;;6282300;22;20086;-70
2023/10/30 13:21:36;;;;;;;6.88;3.72;;;;;;;;;;6287021;22;20097;-71
2023/10/30 13:24:03;;;;;;;6.10;3.88;;;;;;;;;;6289037;22;20031;-74
2023/10/30 13:26:29;;;;;;;7.82;4.63;;;;;;;;;;6287048;22;20096;-70
2023/10/30 13:28:54;;;;;;;7.77;5.13;;;;;;;;;;6260907;22;20078;-74
2023/10/30 13:31:19;;;;;;;7.43;4.97;;;;;;;;;;6286616;22;20310;-74
2023/10/30 13:33:45;;;;;;;7.88;5.60;;;;;;;;;;6285292;22;20743;-75
2023/10/30 13:36:13;;;;;;;10.13;6.10;;;;;;;;;;6257900;22;19995;-72
2023/10/30 13:38:39;;;;;;;7.45;4.90;;;;;;;;;;6286306;22;19999;-75
2023/10/30 13:41:04;;;;;;;6.70;4.13;;;;;;;;;;6288129;22;20525;-72
2023/10/30 13:43:29;;;;;;;6.97;4.32;;;;;;;;;;6257786;22;21036;-73
2023/10/30 13:45:56;;;;;;;6.30;4.37;;;;;;;;;;6287844;22;20011;-73
2023/10/30 13:48:22;;;;;;;6.53;4.25;;;;;;;;;;6286361;22;20222;-71
2023/10/30 13:50:48;;;;;;;6.32;4.20;;;;;;;;;;6260827;22;20439;-75
2023/10/30 13:53:13;;;;;;;6.82;4.70;;;;;;;;;;6260411;22;20003;-72
2023/10/30 13:55:38;;;;;;;8.67;4.40;;;;;;;;;;6260164;22;19999;-71
2023/10/30 13:58:03;;;;;;;5.70;3.87;;;;;;;;;;6289207;22;20222;-72
2023/10/30 14:00:31;;;;;;;6.45;3.92;;;;;;;;;;6258996;22;20618;-70
2023/10/30 14:02:56;;;;;;;6.80;4.13;;;;;;;;;;6289274;22;20007;-71
2023/10/30 14:05:21;;;;;;;6.07;3.80;;;;;;;;;;6286979;22;19995;-72
2023/10/30 14:07:47;;;;;;;6.00;3.90;;;;;;;;;;6287611;22;20702;-70
2023/10/30 14:10:12;;;;;;;6.97;3.95;;;;;;;;;;6260797;22;20292;-69
2023/10/30 14:12:38;;;;;;;6.90;4.25;;;;;;;;;;6285876;22;20075;-68
2023/10/30 14:15:04;;;;;;;6.87;4.10;;;;;;;;;;6289504;22;20007;-67
2023/10/30 14:17:29;;;;;;;7.35;4.85;;;;;;;;;;6257683;22;20429;-69
2023/10/30 14:19:54;;;;;;;6.68;4.43;;;;;;;;;;6287997;22;20730;-68
2023/10/30 14:22:20;;;;;;;6.50;4.33;;;;;;;;;;6286187;22;20562;-71
2023/10/30 14:24:45;;;;;;;6.38;4.40;;;;;;;;;;6259290;22;20221;-70
2023/10/30 14:27:10;;;;;;;6.45;4.57;;;;;;;;;;6287147;22;20407;-70
2023/10/30 14:29:36;;;;;;;7.82;5.22;;;;;;;;;;6284204;22;19999;-71
2023/10/30 14:32:02;;;;;;;7.13;5.20;;;;;;;;;;6258441;22;20832;-71
2023/10/30 14:34:27;;;;;;;7.95;5.95;;;;;;;;;;6286135;22;20221;-69